Time;durP1;ratioP1;P1;durP2;ratioP2;P2;SDS_P1;SDS_P2;PMS_P1;PMS_P2;Temp;Humidity;BMP_temperature;BMP_pressure;BME280_temperature;BME280_humidity;BME280_pressure;Samples;Min_cycle;Max_cycle;Signal;HPM_P1;HPM_P2
2021/07/24 00:16:17;;;;;;;14.03;12.63;;;;;;;21.46;58.04;94430.16;834837;71;32799;-74
2021/07/24 00:31:21;;;;;;;15.45;13.85;;;;;;;21.22;58.25;94428.61;828763;71;30251;-74
2021/07/24 00:46:41;;;;;;;14.80;13.30;;;;;;;20.97;58.86;94417.54;834479;71;33261;-73
2021/07/24 01:01:26;;;;;;;16.57;14.87;;;;;;;20.81;59.95;94407.73;828266;71;32775;-74
2021/07/24 01:16:25;;;;;;;15.43;13.98;;;;;;;20.72;60.51;94412.55;828532;71;30838;-74
2021/07/24 01:31:31;;;;;;;15.08;13.72;;;;;;;20.54;61.22;94404.19;829172;71;29834;-76
2021/07/24 01:46:33;;;;;;;14.73;13.40;;;;;;;20.41;61.42;94405.45;834626;71;32790;-77
2021/07/24 02:01:13;;;;;;;14.75;13.35;;;;;;;20.29;61.80;94398.37;828201;71;30290;-73
2021/07/24 02:16:34;;;;;;;16.67;15.13;;;;;;;20.11;62.19;94399.36;830210;71;32834;-73
2021/07/24 02:31:31;;;;;;;16.93;15.25;;;;;;;19.90;62.74;94403.70;800268;74;32969;-73
2021/07/24 02:46:38;;;;;;;16.52;14.13;;;;;;;19.69;63.34;94413.32;824082;71;32729;-77
2021/07/24 03:16:08;;;;;;;15.28;13.88;;;;;;;19.41;63.83;94422.20;827909;71;30339;-73
2021/07/24 03:31:08;;;;;;;15.63;14.13;;;;;;;19.39;63.78;94418.35;833800;71;29744;-75
2021/07/24 03:46:16;;;;;;;15.25;13.65;;;;;;;20.11;62.28;94433.23;828756;71;31786;-73
2021/07/24 04:01:29;;;;;;;15.98;14.47;;;;;;;21.05;60.14;94439.20;830631;70;32791;-76
2021/07/24 04:16:09;;;;;;;14.65;13.15;;;;;;;22.08;57.94;94454.48;828419;71;30807;-75
2021/07/24 04:31:14;;;;;;;13.83;12.63;;;;;;;23.23;54.54;94457.14;834110;71;30417;-75
2021/07/24 04:46:27;;;;;;;13.67;12.47;;;;;;;24.39;51.51;94444.11;827251;71;32730;-75
2021/07/24 05:01:38;;;;;;;13.83;12.70;;;;;;;25.39;48.78;94463.77;828057;71;30235;-75
2021/07/24 05:16:15;;;;;;;13.90;12.50;;;;;;;26.01;45.95;94464.50;828927;71;29722;-74
2021/07/24 05:31:28;;;;;;;14.17;12.67;;;;;;;26.10;45.54;94462.19;828498;71;29724;-73
2021/07/24 05:46:47;;;;;;;12.00;10.90;;;;;;;26.72;44.80;94458.13;834755;71;32868;-76
2021/07/24 06:01:46;;;;;;;11.20;10.30;;;;;;;26.32;42.76;94462.31;833526;71;32792;-74
2021/07/24 06:16:19;;;;;;;11.10;10.13;;;;;;;;;;828030;71;30864;-73
2021/07/24 06:31:16;;;;;;;10.80;9.80;;;;;;;;;;828676;71;29827;-75
2021/07/24 06:46:23;;;;;;;10.37;9.47;;;;;;;;;;833889;71;32345;-74
2021/07/24 07:01:18;;;;;;;10.53;9.63;;;;;;;27.58;40.23;94464.34;827161;71;32738;-73
2021/07/24 07:16:19;;;;;;;10.70;9.80;;;;;;;28.24;39.46;94455.25;833797;71;33765;-72
2021/07/24 07:31:25;;;;;;;12.30;11.03;;;;;;;29.91;37.68;94457.42;828146;71;29744;-74
2021/07/24 08:01:30;;;;;;;10.73;9.60;;;;;;;30.38;35.53;94453.88;828184;71;32754;-74
2021/07/24 08:31:18;;;;;;;10.50;9.60;;;;;;;31.97;32.36;94442.39;828910;71;29708;-77
2021/07/24 08:46:21;;;;;;;8.63;7.93;;;;;;;31.06;32.42;94436.22;834202;71;32771;-76
2021/07/24 09:31:25;;;;;;;9.47;8.60;;;;;;;29.33;34.61;94439.22;821062;71;32070;-76
2021/07/24 09:46:30;;;;;;;9.37;8.37;;;;;;;27.16;39.55;94449.99;827342;71;32708;-74
2021/07/24 10:01:21;;;;;;;11.10;7.60;;;;;;;26.60;42.62;94457.23;827999;71;30117;-73
2021/07/24 10:16:32;;;;;;;8.27;7.67;;;;;;;;;;836327;70;32778;-76
2021/07/24 10:31:54;;;;;;;9.57;8.77;;;;;;;25.97;39.93;94477.39;821325;71;32835;-75
2021/07/24 10:46:42;;;;;;;9.87;9.07;;;;;;;27.03;41.34;94479.33;833810;71;32875;-73
2021/07/24 11:01:47;;;;;;;9.00;8.20;;;;;;;26.75;40.31;94488.33;827964;71;30305;-75
2021/07/24 11:16:29;;;;;;;9.17;8.30;;;;;;;26.75;41.79;94479.66;833623;71;33188;-75
2021/07/24 11:31:42;;;;;;;9.20;8.40;;;;;;;;;;824582;71;33177;-76
2021/07/24 11:46:22;;;;;;;9.90;8.93;;;;;;;26.29;40.62;94460.39;823097;71;33225;-76
2021/07/24 15:16:11;;;;;;;10.40;9.60;;;;;;;27.70;38.84;94407.82;833866;71;30004;-75
2021/07/24 15:31:09;;;;;;;10.13;9.23;;;;;;;27.93;37.94;94407.22;828926;71;30334;-78
2021/07/24 15:46:14;;;;;;;10.43;9.60;;;;;;;27.50;38.06;123554.15;827197;71;32841;-76
2021/07/24 16:01:15;;;;;;;10.10;9.20;;;;;;;26.37;40.06;165622.38;835892;71;33770;-77
2021/07/24 16:16:27;;;;;;;10.87;9.80;;;;;;;25.70;41.82;94415.75;824013;71;32810;-76
2021/07/24 16:31:40;;;;;;;11.53;10.17;;;;;;;25.25;43.07;94385.86;823964;71;32893;-77
2021/07/24 16:46:16;;;;;;;11.50;10.50;;;;;;;25.41;42.81;94430.56;821949;71;29858;-77
2021/07/24 17:01:21;;;;;;;11.10;10.10;;;;;;;25.48;43.07;94433.23;821017;71;32893;-75
2021/07/24 17:16:22;;;;;;;10.80;9.90;;;;;;;25.36;42.69;94433.62;827139;71;32721;-76
2021/07/24 17:31:12;;;;;;;10.07;9.13;;;;;;;25.18;43.30;94431.69;820355;71;30870;-78
2021/07/24 17:32:16;;;;;;;10.90;9.90;;;;;;;25.14;43.29;94435.50;807775;73;26515;-77
2021/07/24 17:46:29;;;;;;;11.20;10.20;;;;;;;24.96;43.27;94436.27;817121;71;32854;-76
2021/07/24 18:01:52;;;;;;;11.40;10.40;;;;;;;24.43;44.49;94438.77;824219;71;32979;-77
2021/07/24 18:16:35;;;;;;;11.93;10.70;;;;;;;24.32;44.70;94438.15;836043;70;30355;-76
2021/07/24 18:31:25;;;;;;;12.90;11.60;;;;;;;23.65;45.10;94455.95;827810;71;33312;-77
2021/07/24 18:46:17;;;;;;;12.93;11.63;;;;;;;23.28;45.54;94450.88;828494;71;29826;-76
2021/07/24 19:01:21;;;;;;;12.10;10.90;;;;;;;23.02;46.34;94490.60;827460;71;32720;-78
2021/07/24 19:16:22;;;;;;;14.57;13.10;;;;;;;22.72;48.21;94496.75;827798;71;32810;-77
2021/07/24 19:31:17;;;;;;;15.27;13.73;;;;;;;22.34;51.44;94507.17;827878;71;32730;-75
2021/07/24 19:46:23;;;;;;;12.60;11.40;;;;;;;22.50;51.25;94508.33;828398;71;30143;-78
2021/07/24 20:01:21;;;;;;;12.27;11.07;;;;;;;23.69;49.58;94521.05;823564;70;30370;-76
2021/07/24 20:16:19;;;;;;;11.07;10.07;;;;;;;24.49;46.31;94519.84;821268;71;29839;-77
2021/07/24 20:31:17;;;;;;;13.07;11.63;;;;;;;25.15;44.54;94533.16;823345;71;30909;-75
2021/07/24 20:32:21;;;;;;;13.60;12.10;;;;;;;25.17;44.56;94528.75;800463;73;26672;-78
2021/07/24 20:46:21;;;;;;;14.00;12.73;;;;;;;25.37;44.43;94535.34;820007;71;33281;-77
2021/07/24 21:16:13;;;;;;;13.93;12.57;;;;;;;25.55;43.85;94534.60;828574;71;30331;-77
2021/07/24 21:31:09;;;;;;;12.90;11.50;;;;;;;25.53;44.09;94544.97;830014;71;30400;-81
2021/07/24 21:46:14;;;;;;;13.40;12.10;;;;;;;25.62;44.31;94551.30;827803;71;32752;-78
2021/07/24 22:01:13;;;;;;;13.27;11.97;;;;;;;25.54;44.52;94548.59;828634;71;30288;-76
2021/07/24 22:16:08;;;;;;;12.10;10.90;;;;;;;25.44;44.94;94549.93;836082;70;29738;-77
2021/07/24 22:31:10;;;;;;;11.37;10.37;;;;;;;25.48;45.00;94553.39;834303;71;29718;-78
2021/07/24 22:46:09;;;;;;;11.97;10.93;;;;;;;25.35;45.36;94553.76;834092;71;30228;-76
2021/07/24 23:01:09;;;;;;;12.73;11.43;;;;;;;25.30;45.65;94546.06;834007;71;29759;-77
2021/07/24 23:16:09;;;;;;;12.73;11.43;;;;;;;25.27;45.82;94547.41;828340;71;30248;-79
2021/07/24 23:31:12;;;;;;;14.27;12.90;;;;;;;25.01;46.53;94549.23;828444;71;32231;-78
2021/07/24 23:46:10;;;;;;;14.30;12.90;;;;;;;24.99;46.67;94546.15;834192;71;29852;-78
